Time;durP1;ratioP1;P1;durP2;ratioP2;P2;SDS_P1;SDS_P2;PMS_P1;PMS_P2;Temp;Humidity;BMP_temperature;BMP_pressure;BME280_temperature;BME280_humidity;BME280_pressure;Samples;Min_cycle;Max_cycle;Signal;HPM_P1;HPM_P2
2023/11/01 00:03:07;;;;;;;2.43;2.20;;;;;;;8.00;100.00;100560.81;6105867;28;20631;-76
2023/11/01 00:06:28;;;;;;;2.43;2.17;;;;;;;7.79;100.00;100554.53;6112651;28;20326;-74
2023/11/01 00:09:49;;;;;;;1.87;1.77;;;;;;;7.94;100.00;100553.28;6088783;28;20232;-74
2023/11/01 00:13:10;;;;;;;2.87;2.17;;;;;;;7.96;100.00;100554.00;6106980;28;20264;-75
2023/11/01 00:16:32;;;;;;;3.00;1.90;;;;;;;7.73;100.00;100544.31;6087837;29;20812;-75
2023/11/01 00:19:54;;;;;;;3.03;2.80;;;;;;;7.68;100.00;100554.56;6089589;29;20233;-75
2023/11/01 00:23:14;;;;;;;3.23;2.43;;;;;;;7.83;100.00;100552.44;6113495;28;20220;-75
2023/11/01 00:26:35;;;;;;;2.70;2.37;;;;;;;7.94;100.00;100558.63;6090164;29;20240;-75
2023/11/01 00:29:56;;;;;;;2.33;2.13;;;;;;;8.12;100.00;100561.59;6105099;29;20279;-74
2023/11/01 00:33:18;;;;;;;3.37;2.53;;;;;;;8.23;100.00;100558.88;6111935;29;20228;-75
2023/11/01 00:36:40;;;;;;;4.00;2.40;;;;;;;8.20;100.00;100553.75;6084604;29;20228;-75
2023/11/01 00:40:00;;;;;;;2.83;2.63;;;;;;;8.02;100.00;100555.31;6107647;28;20253;-76
2023/11/01 00:43:21;;;;;;;2.70;2.17;;;;;;;7.97;100.00;100558.38;6099453;28;20236;-75
2023/11/01 00:46:41;;;;;;;3.67;2.83;;;;;;;7.97;100.00;100552.13;6109454;29;20318;-75
2023/11/01 00:50:05;;;;;;;3.93;3.20;;;;;;;8.03;100.00;100557.84;6111756;29;20244;-75
2023/11/01 00:53:26;;;;;;;3.47;3.03;;;;;;;8.07;100.00;100559.28;6113970;28;20228;-75
2023/11/01 00:56:47;;;;;;;3.93;2.50;;;;;;;8.07;100.00;100553.09;6111119;28;20251;-75
2023/11/01 01:00:09;;;;;;;4.67;2.10;;;;;;;7.90;100.00;100554.50;6110258;29;20232;-75
2023/11/01 01:03:30;;;;;;;3.33;2.83;;;;;;;7.71;100.00;100548.09;6110502;28;20256;-75
2023/11/01 01:06:52;;;;;;;2.60;2.10;;;;;;;7.56;100.00;100549.34;6098059;28;20239;-75
2023/11/01 01:10:13;;;;;;;2.53;2.33;;;;;;;7.63;100.00;100537.13;6111568;28;20240;-76
2023/11/01 01:13:34;;;;;;;3.50;2.27;;;;;;;7.66;100.00;100529.69;6107275;28;20232;-75
2023/11/01 01:16:55;;;;;;;3.23;2.90;;;;;;;7.71;100.00;100529.31;6110928;28;20234;-76
2023/11/01 01:20:16;;;;;;;4.20;3.03;;;;;;;7.93;100.00;100532.75;6113436;29;21090;-76
2023/11/01 01:23:38;;;;;;;5.37;3.53;;;;;;;8.15;100.00;100529.16;6114855;28;20547;-76
2023/11/01 01:26:59;;;;;;;4.20;2.43;;;;;;;8.17;100.00;100537.91;6115121;29;20231;-76
2023/11/01 01:30:20;;;;;;;2.57;2.10;;;;;;;7.86;100.00;100533.41;6116557;28;20235;-75
2023/11/01 01:33:44;;;;;;;4.57;2.40;;;;;;;7.87;100.00;100533.28;6117424;28;20235;-76
2023/11/01 01:37:05;;;;;;;3.60;2.90;;;;;;;7.81;100.00;100533.78;6107933;28;20235;-76
2023/11/01 01:40:27;;;;;;;2.37;1.90;;;;;;;7.70;100.00;100531.13;6111488;28;20334;-76
2023/11/01 01:43:48;;;;;;;2.50;2.23;;;;;;;7.70;100.00;100539.19;6113010;28;20664;-75
2023/11/01 01:47:09;;;;;;;5.80;2.77;;;;;;;7.60;100.00;100538.22;6118829;28;20608;-75
2023/11/01 01:50:30;;;;;;;3.37;2.37;;;;;;;7.74;100.00;100521.84;6061710;29;20611;-75
2023/11/01 01:53:53;;;;;;;2.10;1.90;;;;;;;7.92;100.00;100525.72;6111544;28;20248;-75
2023/11/01 01:57:15;;;;;;;3.27;2.50;;;;;;;7.81;100.00;100520.38;6103603;28;20314;-75
2023/11/01 02:00:36;;;;;;;2.03;1.50;;;;;;;7.72;100.00;100523.81;6083077;29;20231;-76
2023/11/01 02:03:57;;;;;;;7.00;2.20;;;;;;;7.73;100.00;100536.25;6106936;29;20235;-76
2023/11/01 02:07:20;;;;;;;3.33;2.20;;;;;;;7.83;100.00;100539.88;6101957;28;20239;-76
2023/11/01 02:10:41;;;;;;;3.00;2.30;;;;;;;7.82;100.00;100535.47;6110175;28;20223;-75
2023/11/01 02:14:04;;;;;;;4.53;2.10;;;;;;;7.67;100.00;100536.75;6103970;28;20594;-75
2023/11/01 02:17:25;;;;;;;2.10;1.27;;;;;;;7.69;100.00;100529.44;6111590;28;20263;-76
2023/11/01 02:20:48;;;;;;;1.80;1.70;;;;;;;7.80;100.00;100534.75;6102652;28;20231;-76
2023/11/01 02:24:10;;;;;;;2.47;2.17;;;;;;;7.82;100.00;100531.97;6123319;28;20247;-76
2023/11/01 02:27:31;;;;;;;2.10;1.37;;;;;;;7.98;100.00;100519.81;6077425;28;20611;-75
2023/11/01 02:30:52;;;;;;;5.07;1.80;;;;;;;8.09;100.00;100519.75;6124629;28;20255;-76
2023/11/01 02:34:13;;;;;;;2.60;1.60;;;;;;;8.23;100.00;100523.97;6113174;28;20240;-77
2023/11/01 02:37:34;;;;;;;2.73;1.93;;;;;;;8.33;100.00;100522.25;6105316;28;20232;-76
2023/11/01 02:40:56;;;;;;;2.10;1.20;;;;;;;8.11;100.00;100522.34;6110945;28;20231;-76
2023/11/01 02:44:17;;;;;;;2.73;1.40;;;;;;;7.83;100.00;100517.56;6098682;28;20239;-76
2023/11/01 02:47:39;;;;;;;1.63;1.10;;;;;;;7.95;100.00;100509.34;6100592;28;20313;-76
2023/11/01 02:51:00;;;;;;;1.10;1.10;;;;;;;7.93;100.00;100521.16;6110095;28;20270;-76
2023/11/01 02:54:21;;;;;;;1.63;1.30;;;;;;;7.89;100.00;100512.53;6108468;28;20232;-76
2023/11/01 02:57:44;;;;;;;1.60;1.50;;;;;;;7.75;100.00;100511.97;6087445;28;20240;-75
2023/11/01 03:01:07;;;;;;;2.13;1.23;;;;;;;7.62;100.00;100506.78;6109128;28;20259;-75
2023/11/01 03:04:27;;;;;;;1.70;1.53;;;;;;;7.81;100.00;100493.53;6088240;28;20241;-75
2023/11/01 03:07:48;;;;;;;1.90;1.67;;;;;;;7.86;100.00;100493.16;6106407;28;20531;-77
2023/11/01 03:11:09;;;;;;;1.50;1.40;;;;;;;7.78;100.00;100484.91;6111179;28;20248;-75
2023/11/01 03:14:31;;;;;;;1.43;1.27;;;;;;;7.87;100.00;100481.44;6113370;28;20228;-76
2023/11/01 03:17:52;;;;;;;6.70;1.60;;;;;;;7.95;100.00;100479.81;6108480;29;21169;-76
2023/11/01 03:21:13;;;;;;;1.00;0.93;;;;;;;7.87;100.00;100474.25;6106695;29;20236;-76
2023/11/01 03:24:34;;;;;;;3.03;1.60;;;;;;;7.93;100.00;100478.22;6103662;28;20255;-76
2023/11/01 03:27:55;;;;;;;1.87;0.90;;;;;;;7.93;100.00;100472.84;6112902;28;20243;-76
2023/11/01 03:31:18;;;;;;;2.03;1.83;;;;;;;8.02;100.00;100472.09;6110511;28;20232;-75
2023/11/01 03:34:39;;;;;;;1.20;1.10;;;;;;;8.06;100.00;100474.41;6117046;28;20232;-76
2023/11/01 03:38:00;;;;;;;3.57;1.57;;;;;;;8.11;100.00;100465.09;6108925;28;20235;-76
2023/11/01 03:41:21;;;;;;;1.23;1.13;;;;;;;8.08;100.00;100480.47;6113536;28;20223;-77
2023/11/01 03:44:42;;;;;;;1.27;1.07;;;;;;;7.98;100.00;100479.56;6111806;28;20279;-76
2023/11/01 03:48:06;;;;;;;3.63;1.60;;;;;;;8.00;100.00;100474.91;6123006;28;20232;-77
2023/11/01 03:51:27;;;;;;;1.97;1.07;;;;;;;8.19;100.00;100473.34;6111325;28;21085;-76
2023/11/01 03:54:48;;;;;;;2.70;1.90;;;;;;;8.04;100.00;100467.44;6114308;28;20243;-75
2023/11/01 03:58:09;;;;;;;1.83;0.80;;;;;;;8.02;100.00;100477.47;6111754;28;20236;-76
2023/11/01 04:01:30;;;;;;;1.13;0.87;;;;;;;8.00;100.00;100471.38;6106931;28;20227;-75
2023/11/01 04:04:52;;;;;;;3.00;1.20;;;;;;;7.94;100.00;100458.47;6114573;28;20234;-75
2023/11/01 04:08:13;;;;;;;1.47;0.90;;;;;;;8.04;100.00;100462.06;6108475;28;20232;-76
2023/11/01 04:11:34;;;;;;;9.27;1.53;;;;;;;7.86;100.00;100456.41;6125686;28;20232;-76
2023/11/01 04:14:55;;;;;;;2.00;0.90;;;;;;;7.90;100.00;100446.31;6110006;28;21908;-76
2023/11/01 04:18:16;;;;;;;1.00;0.90;;;;;;;7.85;100.00;100453.88;6114104;28;20597;-76
2023/11/01 04:21:39;;;;;;;1.50;1.33;;;;;;;7.95;100.00;100452.97;6109101;28;20232;-76
2023/11/01 04:24:59;;;;;;;2.37;0.97;;;;;;;8.03;100.00;100444.28;6103679;28;20236;-76
2023/11/01 04:28:20;;;;;;;2.77;1.70;;;;;;;7.99;100.00;100441.00;6081299;29;20239;-75
2023/11/01 04:31:41;;;;;;;5.47;1.67;;;;;;;8.00;100.00;100439.16;6109587;29;20232;-76
2023/11/01 04:35:02;;;;;;;0.93;0.73;;;;;;;8.10;100.00;100434.72;6114589;28;20234;-76
2023/11/01 04:38:24;;;;;;;1.20;0.90;;;;;;;8.15;100.00;100434.31;6115565;28;20239;-74
2023/11/01 04:41:45;;;;;;;2.40;0.73;;;;;;;8.05;100.00;100426.22;6109422;28;20239;-75
2023/11/01 04:45:07;;;;;;;1.13;1.03;;;;;;;8.03;100.00;100422.81;6110583;29;20227;-74
2023/11/01 04:48:27;;;;;;;1.83;0.80;;;;;;;8.11;100.00;100427.50;6114841;28;20232;-75
2023/11/01 04:51:48;;;;;;;1.13;1.03;;;;;;;8.03;100.00;100420.13;6115379;28;20236;-75
2023/11/01 04:55:11;;;;;;;1.43;1.03;;;;;;;7.93;100.00;100421.88;6123251;28;20243;-75
2023/11/01 04:58:34;;;;;;;9.13;1.50;;;;;;;7.96;100.00;100419.81;6091721;28;20227;-75
2023/11/01 05:01:55;;;;;;;0.97;0.90;;;;;;;8.02;100.00;100421.09;6113213;28;20616;-75
2023/11/01 05:05:16;;;;;;;1.83;1.00;;;;;;;7.88;100.00;100414.25;6112646;28;20878;-75
2023/11/01 05:08:38;;;;;;;2.10;0.50;;;;;;;7.90;100.00;100414.97;6114129;28;20236;-75
2023/11/01 05:12:00;;;;;;;1.43;1.23;;;;;;;7.67;100.00;100410.69;6110922;28;20232;-76
2023/11/01 05:15:21;;;;;;;1.23;1.13;;;;;;;7.56;100.00;100404.50;6102215;28;20244;-76
2023/11/01 05:18:42;;;;;;;1.67;1.57;;;;;;;7.55;100.00;100390.22;6107317;28;20236;-75
2023/11/01 05:22:03;;;;;;;0.93;0.93;;;;;;;7.38;100.00;100398.88;6112563;29;20261;-75
2023/11/01 05:25:25;;;;;;;1.50;0.70;;;;;;;7.57;100.00;100393.63;6106830;28;20236;-74
2023/11/01 05:28:47;;;;;;;1.83;0.70;;;;;;;7.45;100.00;100389.31;6106016;28;20224;-75
2023/11/01 05:32:09;;;;;;;1.23;0.93;;;;;;;7.31;100.00;100394.97;6108744;28;20311;-76
2023/11/01 05:35:29;;;;;;;4.43;1.43;;;;;;;7.45;100.00;100392.00;6115538;28;20223;-76
2023/11/01 05:38:50;;;;;;;2.03;1.33;;;;;;;7.54;100.00;100385.88;6107141;28;20228;-75
2023/11/01 05:42:11;;;;;;;1.80;0.60;;;;;;;7.52;100.00;100401.22;6119209;28;20231;-76
2023/11/01 05:45:33;;;;;;;0.77;0.73;;;;;;;7.56;100.00;100391.09;6087993;29;21680;-76
2023/11/01 05:48:54;;;;;;;1.67;1.20;;;;;;;7.65;100.00;100387.66;6116107;28;20236;-76
2023/11/01 05:52:17;;;;;;;1.33;1.23;;;;;;;7.67;100.00;100381.19;6102233;28;20228;-76
2023/11/01 05:55:38;;;;;;;1.67;1.57;;;;;;;7.68;100.00;100380.19;6112798;28;20239;-75
2023/11/01 05:58:59;;;;;;;1.50;1.40;;;;;;;7.63;100.00;100397.66;6111672;28;20235;-76
2023/11/01 06:02:21;;;;;;;14.57;2.23;;;;;;;7.52;100.00;100389.66;6105018;28;20235;-75
2023/11/01 06:05:42;;;;;;;2.63;2.43;;;;;;;7.43;100.00;100383.22;6108712;28;22222;-76
2023/11/01 06:09:03;;;;;;;3.60;1.50;;;;;;;7.28;100.00;100391.72;6110591;28;20227;-76
2023/11/01 06:12:24;;;;;;;2.10;1.90;;;;;;;7.41;100.00;100384.31;6114065;28;20234;-76
2023/11/01 06:15:45;;;;;;;2.87;1.80;;;;;;;7.30;100.00;100390.63;6092274;28;20236;-76
2023/11/01 06:19:07;;;;;;;1.47;1.33;;;;;;;7.39;100.00;100389.81;6101781;29;20718;-77
2023/11/01 06:22:29;;;;;;;5.33;1.60;;;;;;;7.58;100.00;100397.19;6106647;29;20231;-75
2023/11/01 06:25:49;;;;;;;1.60;1.47;;;;;;;7.48;100.00;100390.88;6103782;29;20232;-75
2023/11/01 06:29:10;;;;;;;5.10;2.30;;;;;;;7.67;100.00;100378.50;6101535;28;20798;-75
2023/11/01 06:32:31;;;;;;;3.67;2.40;;;;;;;7.65;100.00;100385.81;6091267;29;20314;-76
2023/11/01 06:35:53;;;;;;;3.37;1.53;;;;;;;7.62;100.00;100390.56;6103862;29;20309;-74
2023/11/01 06:39:14;;;;;;;5.20;3.10;;;;;;;7.70;100.00;100388.94;6090758;28;20244;-75
2023/11/01 06:42:35;;;;;;;3.97;2.33;;;;;;;7.54;100.00;100385.88;6101123;28;20232;-78
2023/11/01 06:45:56;;;;;;;4.83;2.20;;;;;;;7.50;100.00;100389.78;6081071;28;20621;-75
2023/11/01 06:49:17;;;;;;;5.50;1.90;;;;;;;7.56;100.00;100385.72;6073381;29;20326;-74
2023/11/01 06:52:44;;;;;;;3.73;3.27;;;;;;;7.74;100.00;100374.28;6079791;28;20252;-78
2023/11/01 06:56:06;;;;;;;3.80;2.40;;;;;;;7.74;100.00;100374.28;6085214;28;20264;-73
2023/11/01 06:59:27;;;;;;;4.33;2.27;;;;;;;7.58;100.00;100381.09;6079138;29;20482;-74
2023/11/01 07:02:47;;;;;;;3.67;2.50;;;;;;;7.63;100.00;100374.38;6109067;28;20231;-77
2023/11/01 07:06:09;;;;;;;5.53;1.93;;;;;;;7.84;100.00;100369.84;6116402;28;20536;-76
2023/11/01 07:09:34;;;;;;;3.77;2.13;;;;;;;7.80;100.00;100376.44;6114385;28;20586;-74
2023/11/01 07:12:55;;;;;;;3.17;2.73;;;;;;;7.73;100.00;100372.59;6127948;28;20246;-76
2023/11/01 07:16:15;;;;;;;5.90;2.83;;;;;;;7.62;100.00;100369.97;6114324;28;20232;-75
2023/11/01 07:19:36;;;;;;;3.10;2.73;;;;;;;7.62;100.00;100375.34;6108473;28;20711;-75
2023/11/01 07:22:57;;;;;;;3.07;2.77;;;;;;;7.51;100.00;100361.97;6121830;28;20231;-75
2023/11/01 07:26:19;;;;;;;4.63;1.83;;;;;;;7.67;100.00;100367.75;6111597;28;20267;-72
2023/11/01 07:29:41;;;;;;;4.47;3.03;;;;;;;7.84;100.00;100360.97;6112873;28;20255;-73
2023/11/01 07:33:02;;;;;;;8.87;3.80;;;;;;;7.72;100.00;100352.09;6116355;28;20609;-73
2023/11/01 07:36:23;;;;;;;5.23;2.77;;;;;;;7.82;100.00;100346.81;6114735;28;20240;-75
2023/11/01 07:39:47;;;;;;;4.13;3.13;;;;;;;7.94;100.00;100354.66;6108731;28;20232;-75
2023/11/01 07:43:09;;;;;;;3.50;2.73;;;;;;;7.90;100.00;100350.56;6109271;28;20494;-73
2023/11/01 07:46:30;;;;;;;3.37;2.77;;;;;;;7.77;100.00;100357.94;6118899;28;20240;-73
2023/11/01 07:49:52;;;;;;;5.00;2.97;;;;;;;7.78;100.00;100348.06;6114299;28;20697;-79
2023/11/01 07:53:13;;;;;;;7.37;3.40;;;;;;;7.83;100.00;100346.69;6112608;28;20236;-74
2023/11/01 07:56:34;;;;;;;5.53;3.93;;;;;;;7.79;100.00;100349.75;6106039;28;20236;-74
2023/11/01 07:59:57;;;;;;;6.07;3.47;;;;;;;7.93;100.00;100342.22;6119841;28;20235;-78
2023/11/01 08:03:20;;;;;;;5.07;2.90;;;;;;;7.92;100.00;100334.31;6133534;28;20255;-73
2023/11/01 08:06:41;;;;;;;4.60;3.00;;;;;;;7.98;100.00;100334.63;6111864;28;20319;-74
2023/11/01 08:10:02;;;;;;;7.50;3.53;;;;;;;7.97;100.00;100334.75;6115546;28;20323;-74
2023/11/01 08:13:25;;;;;;;5.40;2.40;;;;;;;8.04;100.00;100326.03;6115262;28;20235;-73
2023/11/01 08:16:47;;;;;;;3.30;2.90;;;;;;;8.05;100.00;100329.59;6116281;28;20231;-72
2023/11/01 08:20:09;;;;;;;4.00;3.37;;;;;;;8.17;100.00;100322.28;6095773;28;20702;-75
2023/11/01 08:23:30;;;;;;;2.93;2.70;;;;;;;8.04;100.00;100323.38;6092106;29;20255;-73
2023/11/01 08:26:50;;;;;;;4.33;3.50;;;;;;;8.25;100.00;100314.41;6090545;29;20248;-74
2023/11/01 08:30:14;;;;;;;5.13;4.37;;;;;;;8.42;100.00;100311.97;6087884;28;22497;-74
2023/11/01 08:33:36;;;;;;;4.90;3.53;;;;;;;8.29;100.00;100314.03;6103868;28;20228;-76
2023/11/01 08:36:57;;;;;;;7.10;4.57;;;;;;;8.32;100.00;100312.91;6113042;28;20251;-75
2023/11/01 08:40:18;;;;;;;6.53;4.17;;;;;;;8.34;100.00;100303.75;6087695;28;20308;-75
2023/11/01 08:43:39;;;;;;;4.60;3.40;;;;;;;8.40;100.00;100303.19;6071880;29;20224;-75
2023/11/01 08:47:04;;;;;;;5.10;4.30;;;;;;;8.39;100.00;100298.78;6110285;29;20610;-78
2023/11/01 08:50:26;;;;;;;7.70;4.60;;;;;;;8.39;100.00;100295.25;6116142;29;20233;-74
2023/11/01 08:53:47;;;;;;;3.80;3.30;;;;;;;8.53;100.00;100300.28;6097598;28;20691;-77
2023/11/01 08:57:08;;;;;;;7.17;4.60;;;;;;;8.71;100.00;100283.34;6115074;28;20228;-73
2023/11/01 09:00:30;;;;;;;5.23;3.70;;;;;;;8.78;100.00;100292.53;6111002;28;20349;-73
2023/11/01 09:03:51;;;;;;;5.00;3.63;;;;;;;8.84;100.00;100283.06;6108627;28;20231;-74
2023/11/01 09:07:13;;;;;;;5.93;4.43;;;;;;;8.88;100.00;100284.50;6114031;29;20244;-75
2023/11/01 09:10:34;;;;;;;4.87;3.47;;;;;;;9.09;100.00;100282.53;6093497;28;20239;-72
2023/11/01 09:13:55;;;;;;;9.63;4.13;;;;;;;8.88;100.00;100287.19;6118350;28;20244;-72
2023/11/01 09:17:16;;;;;;;4.63;2.83;;;;;;;8.77;100.00;100284.59;6089635;29;20229;-72
2023/11/01 09:20:37;;;;;;;7.27;3.87;;;;;;;8.84;100.00;100286.59;6093357;28;20228;-72
2023/11/01 09:24:00;;;;;;;4.07;3.67;;;;;;;8.93;100.00;100281.38;6117781;28;20235;-71
2023/11/01 09:27:20;;;;;;;6.00;4.13;;;;;;;8.67;100.00;100284.59;6121715;28;20243;-72
2023/11/01 09:30:41;;;;;;;4.90;3.93;;;;;;;8.84;100.00;100278.53;6109620;28;20323;-72
2023/11/01 09:34:02;;;;;;;4.77;3.30;;;;;;;8.72;100.00;100284.16;6082867;29;20231;-73
2023/11/01 09:37:23;;;;;;;7.27;3.77;;;;;;;8.71;100.00;100269.03;6095001;29;20236;-72
2023/11/01 09:40:46;;;;;;;5.93;4.13;;;;;;;8.92;100.00;100268.94;6113386;29;20236;-72
2023/11/01 09:44:09;;;;;;;4.80;3.73;;;;;;;9.21;100.00;100269.78;6110999;29;20517;-73
2023/11/01 09:47:32;;;;;;;4.23;3.83;;;;;;;9.13;100.00;100261.56;6109022;29;20239;-72
2023/11/01 09:50:59;;;;;;;6.73;4.87;;;;;;;9.16;100.00;100256.75;6098029;28;20232;-73
2023/11/01 09:54:19;;;;;;;5.17;4.33;;;;;;;9.39;100.00;100246.53;6093318;29;20232;-73
2023/11/01 09:57:43;;;;;;;6.27;4.50;;;;;;;9.36;100.00;100242.31;6095313;28;20263;-72
2023/11/01 10:01:05;;;;;;;5.77;4.00;;;;;;;9.38;100.00;100237.63;6108104;28;20223;-73
2023/11/01 10:04:26;;;;;;;5.10;3.57;;;;;;;9.49;100.00;100240.13;6109701;28;20256;-73
2023/11/01 10:07:47;;;;;;;4.30;3.80;;;;;;;9.59;100.00;100232.06;6111243;29;20512;-72
2023/11/01 10:11:08;;;;;;;5.20;4.70;;;;;;;9.73;100.00;100231.59;6111390;28;20232;-73
2023/11/01 10:14:32;;;;;;;6.87;3.87;;;;;;;9.83;100.00;100220.78;6113649;29;20274;-73
2023/11/01 10:17:54;;;;;;;5.27;4.63;;;;;;;9.86;100.00;100220.50;6110247;29;20278;-73
2023/11/01 10:21:15;;;;;;;6.37;5.23;;;;;;;9.89;100.00;100212.97;6112986;28;20224;-72
2023/11/01 10:24:36;;;;;;;4.50;4.10;;;;;;;10.07;100.00;100207.66;6115332;28;20220;-73
2023/11/01 10:27:57;;;;;;;6.13;4.83;;;;;;;9.95;100.00;100211.53;6110313;29;20236;-73
2023/11/01 10:31:19;;;;;;;5.03;4.57;;;;;;;10.07;100.00;100203.13;6114670;28;20504;-73
2023/11/01 10:34:41;;;;;;;5.50;4.53;;;;;;;10.07;100.00;100197.72;6114215;28;20232;-72
2023/11/01 10:38:03;;;;;;;5.07;4.57;;;;;;;10.05;100.00;100193.47;6116488;28;20244;-72
2023/11/01 10:41:25;;;;;;;6.13;5.50;;;;;;;10.18;100.00;100186.78;6122206;28;20414;-72
2023/11/01 10:44:46;;;;;;;7.20;3.83;;;;;;;10.24;100.00;100183.47;6117847;28;20235;-73
2023/11/01 10:48:11;;;;;;;9.63;5.00;;;;;;;10.24;100.00;100180.78;6114943;28;20334;-73
2023/11/01 10:51:33;;;;;;;6.10;4.33;;;;;;;10.42;100.00;100175.44;6100220;29;20324;-80
2023/11/01 10:54:55;;;;;;;5.57;4.90;;;;;;;10.59;100.00;100157.56;6115311;28;20235;-74
2023/11/01 10:58:16;;;;;;;4.73;4.33;;;;;;;10.75;100.00;100157.72;6105065;28;20231;-74
2023/11/01 11:01:42;;;;;;;6.90;4.53;;;;;;;10.94;100.00;100146.75;6117235;28;20243;-74
2023/11/01 11:05:10;;;;;;;4.23;3.83;;;;;;;11.15;100.00;100139.16;6109600;28;20347;-74
2023/11/01 11:08:31;;;;;;;8.27;4.70;;;;;;;11.12;100.00;100136.78;6111110;29;20239;-74
2023/11/01 11:12:19;;;;;;;4.87;4.27;;;;;;;11.13;100.00;100131.25;6113225;28;20272;-77
2023/11/01 11:15:59;;;;;;;4.73;3.53;;;;;;;11.15;100.00;100125.69;6106986;28;20239;-76
2023/11/01 11:19:19;;;;;;;5.93;4.10;;;;;;;11.28;100.00;100121.53;6120966;28;20760;-74
2023/11/01 11:23:11;;;;;;;3.90;3.60;;;;;;;11.26;100.00;100118.16;6115998;29;20235;-76
2023/11/01 11:26:41;;;;;;;5.47;4.50;;;;;;;11.46;100.00;100112.53;6119154;28;20228;-75
2023/11/01 11:30:02;;;;;;;4.47;3.43;;;;;;;11.46;100.00;100112.53;6106702;29;20243;-74
2023/11/01 11:33:23;;;;;;;4.73;4.23;;;;;;;11.38;100.00;100099.00;6115959;28;20643;-73
2023/11/01 11:37:10;;;;;;;3.77;3.47;;;;;;;11.42;100.00;100103.94;6109804;28;20481;-73
2023/11/01 11:40:32;;;;;;;5.07;4.50;;;;;;;11.33;100.00;100095.97;6121380;28;20374;-73
2023/11/01 11:44:03;;;;;;;3.47;3.17;;;;;;;11.18;100.00;100093.00;6101140;28;20570;-76
2023/11/01 11:47:32;;;;;;;4.43;4.03;;;;;;;11.00;100.00;100092.19;6093058;29;20606;-75
2023/11/01 11:51:05;;;;;;;4.70;4.10;;;;;;;10.93;100.00;100081.19;6115835;28;20242;-78
2023/11/01 11:54:28;;;;;;;6.53;4.43;;;;;;;10.86;100.00;100084.69;6099716;28;20252;-77
2023/11/01 11:57:50;;;;;;;6.27;4.30;;;;;;;10.83;100.00;100084.97;6112482;28;20236;-73
2023/11/01 12:01:23;;;;;;;4.27;3.90;;;;;;;10.79;100.00;100080.91;6111713;29;20231;-75
2023/11/01 12:04:45;;;;;;;5.13;4.37;;;;;;;10.86;100.00;100076.59;6113632;28;20235;-74
2023/11/01 12:08:06;;;;;;;5.90;4.33;;;;;;;10.83;100.00;100066.97;6097803;28;20240;-75
2023/11/01 12:11:28;;;;;;;8.10;5.47;;;;;;;10.85;100.00;100064.97;6115148;28;20706;-75
2023/11/01 12:15:01;;;;;;;6.27;5.17;;;;;;;10.88;100.00;100066.50;6113528;28;20240;-76
2023/11/01 12:18:23;;;;;;;4.53;4.13;;;;;;;10.90;100.00;100059.94;6112595;28;20273;-77
2023/11/01 12:21:45;;;;;;;7.00;5.30;;;;;;;10.92;100.00;100057.09;6115427;28;20244;-76
2023/11/01 12:25:08;;;;;;;7.63;4.60;;;;;;;10.94;100.00;100058.63;6103959;28;20244;-76
2023/11/01 12:28:29;;;;;;;4.10;3.80;;;;;;;11.02;100.00;100052.44;6103117;28;20240;-76
2023/11/01 12:32:01;;;;;;;5.37;4.70;;;;;;;11.03;100.00;100049.59;6112718;28;20243;-77
2023/11/01 12:35:22;;;;;;;5.50;4.20;;;;;;;11.06;100.00;100051.09;6109404;28;20243;-74
2023/11/01 12:38:44;;;;;;;10.53;4.63;;;;;;;11.14;100.00;100048.44;6104580;28;20243;-73
2023/11/01 12:42:26;;;;;;;3.53;3.23;;;;;;;11.15;100.00;100039.34;6097479;28;20681;-74
2023/11/01 12:45:47;;;;;;;3.47;3.07;;;;;;;11.23;100.00;100042.94;6106479;28;20319;-76
2023/11/01 12:49:09;;;;;;;4.73;3.00;;;;;;;11.28;100.00;100037.06;6088014;28;20235;-76
2023/11/01 12:52:30;;;;;;;2.70;2.33;;;;;;;11.30;100.00;100034.22;6104890;28;20240;-73
2023/11/01 12:55:51;;;;;;;2.03;1.93;;;;;;;11.33;100.00;100031.19;6113755;28;20232;-77
2023/11/01 12:59:12;;;;;;;2.60;2.40;;;;;;;11.37;100.00;100019.06;6104104;28;20283;-77
2023/11/01 13:02:33;;;;;;;5.67;1.70;;;;;;;11.41;100.00;100012.34;6113908;28;20235;-74
2023/11/01 13:05:55;;;;;;;1.70;1.60;;;;;;;11.43;100.00;99997.66;6111306;28;20236;-76
2023/11/01 13:09:16;;;;;;;1.73;1.53;;;;;;;11.48;100.00;100002.56;6099308;28;20235;-75
2023/11/01 13:12:39;;;;;;;1.70;1.60;;;;;;;11.50;100.00;100005.94;6089044;29;20622;-74
2023/11/01 13:16:00;;;;;;;1.83;1.67;;;;;;;11.55;100.00;99996.38;6114421;28;20231;-78
2023/11/01 13:19:22;;;;;;;2.43;1.37;;;;;;;11.60;100.00;99995.88;6109164;28;20243;-80
2023/11/01 13:22:44;;;;;;;4.00;1.77;;;;;;;11.60;100.00;99995.88;6085263;28;20240;-81
2023/11/01 13:26:06;;;;;;;2.63;2.23;;;;;;;11.64;100.00;99998.06;6093738;28;20233;-81
2023/11/01 13:29:27;;;;;;;2.73;2.10;;;;;;;11.64;100.00;99987.25;6098754;28;20319;-74
2023/11/01 13:32:48;;;;;;;1.50;1.40;;;;;;;11.76;100.00;99988.69;6099879;28;20259;-74
2023/11/01 13:36:10;;;;;;;2.10;1.70;;;;;;;11.77;100.00;99978.72;6107215;29;20894;-79
2023/11/01 13:39:33;;;;;;;1.87;1.73;;;;;;;11.76;100.00;99971.66;6103092;28;20237;-73
2023/11/01 13:42:54;;;;;;;1.83;1.73;;;;;;;11.79;100.00;99971.31;6111661;28;20244;-75
2023/11/01 13:46:15;;;;;;;1.60;1.50;;;;;;;11.80;100.00;99971.16;6107748;29;20239;-74
2023/11/01 13:49:39;;;;;;;2.10;1.90;;;;;;;11.83;100.00;99969.94;6111334;28;20243;-77
2023/11/01 13:53:00;;;;;;;2.07;1.90;;;;;;;11.84;100.00;99972.50;6093518;28;20607;-74
2023/11/01 13:56:23;;;;;;;4.77;2.73;;;;;;;11.88;100.00;99960.34;6113295;28;20239;-74
2023/11/01 13:59:44;;;;;;;3.30;2.53;;;;;;;11.89;100.00;99953.13;6109133;28;20232;-74
2023/11/01 14:03:05;;;;;;;4.77;2.97;;;;;;;11.88;100.00;99956.81;6103825;28;20706;-73
2023/11/01 14:06:26;;;;;;;3.87;2.27;;;;;;;11.92;100.00;99959.00;6108258;28;20232;-74
2023/11/01 14:09:47;;;;;;;2.90;2.53;;;;;;;11.94;100.00;99957.00;6102113;29;20231;-73
2023/11/01 14:13:10;;;;;;;1.73;1.63;;;;;;;11.97;100.00;99953.94;6106953;28;20240;-74
2023/11/01 14:16:31;;;;;;;4.47;3.10;;;;;;;11.95;100.00;99947.84;6110725;28;20235;-78
2023/11/01 14:19:52;;;;;;;3.10;2.10;;;;;;;11.99;100.00;99937.59;6116575;28;20669;-81
2023/11/01 14:23:13;;;;;;;3.10;2.53;;;;;;;12.03;100.00;99922.72;6111668;29;20616;-81
2023/11/01 14:26:34;;;;;;;3.10;2.03;;;;;;;12.03;100.00;99930.84;6120758;28;20505;-76
2023/11/01 14:29:56;;;;;;;3.77;2.90;;;;;;;12.05;100.00;99926.09;6113766;28;20520;-77
2023/11/01 14:33:17;;;;;;;2.67;1.93;;;;;;;12.07;100.00;99921.38;6103507;28;20236;-74
2023/11/01 14:36:39;;;;;;;2.93;2.33;;;;;;;12.06;100.00;99910.75;6108551;28;20559;-78
2023/11/01 14:40:00;;;;;;;2.27;2.00;;;;;;;12.06;100.00;99913.44;6110980;29;20235;-77
2023/11/01 14:43:23;;;;;;;4.10;2.30;;;;;;;12.10;100.00;99909.38;6106772;29;20247;-86
2023/11/01 14:46:45;;;;;;;2.30;2.10;;;;;;;12.13;100.00;99909.03;6110320;29;20732;-76
2023/11/01 14:50:09;;;;;;;3.77;2.10;;;;;;;12.14;100.00;99908.03;6110736;29;20893;-74
2023/11/01 14:53:31;;;;;;;6.37;2.83;;;;;;;12.17;100.00;99900.44;6111629;29;20263;-76
2023/11/01 14:56:52;;;;;;;7.00;3.17;;;;;;;12.19;100.00;99898.38;6098616;29;20351;-75
2023/11/01 15:00:14;;;;;;;8.00;2.97;;;;;;;12.19;100.00;99893.00;6108492;28;20685;-79
2023/11/01 15:03:36;;;;;;;3.77;2.67;;;;;;;12.22;100.00;99894.50;6106182;28;20239;-78
2023/11/01 15:06:58;;;;;;;4.17;2.70;;;;;;;12.21;100.00;99890.97;6112095;28;20232;-85
2023/11/01 15:10:18;;;;;;;2.97;2.70;;;;;;;12.20;100.00;99886.59;6090516;28;20240;-77
2023/11/01 15:13:39;;;;;;;2.83;2.60;;;;;;;12.19;100.00;99884.03;6049234;29;20236;-77
2023/11/01 15:17:00;;;;;;;3.23;2.97;;;;;;;12.17;100.00;99881.50;6085087;28;20275;-75
2023/11/01 15:20:22;;;;;;;4.07;2.73;;;;;;;12.16;100.00;99887.91;6103523;28;20232;-75
2023/11/01 15:23:43;;;;;;;3.17;2.63;;;;;;;12.17;100.00;99881.50;6117407;28;20695;-76
2023/11/01 15:27:05;;;;;;;6.23;3.00;;;;;;;12.18;100.00;99872.41;6111371;28;20296;-76
2023/11/01 15:30:26;;;;;;;3.97;1.90;;;;;;;12.16;100.00;99877.09;6115836;28;20236;-75
2023/11/01 15:33:48;;;;;;;3.80;2.57;;;;;;;12.11;100.00;99871.38;6115094;28;20663;-75
2023/11/01 15:37:11;;;;;;;3.37;2.20;;;;;;;12.08;100.00;99865.50;6129305;28;20228;-74
2023/11/01 15:40:33;;;;;;;13.43;4.03;;;;;;;12.02;100.00;99862.44;6116220;28;20276;-75